createdAt,value
2023-04-21T00:00:54.174Z,308
2023-04-21T00:03:06.244Z,309
2023-04-21T00:05:18.392Z,309
2023-04-21T00:07:36.217Z,309
2023-04-21T00:09:49.538Z,308
2023-04-21T00:12:01.383Z,310
2023-04-21T00:14:13.068Z,309
2023-04-21T00:16:25.166Z,309
2023-04-21T00:18:36.410Z,310
2023-04-21T00:20:47.917Z,309
2023-04-21T00:22:58.801Z,309
2023-04-21T00:25:10.743Z,309
2023-04-21T00:27:23.628Z,308
2023-04-21T00:29:36.057Z,308
2023-04-21T00:31:48.584Z,310
2023-04-21T00:33:59.526Z,310
2023-04-21T00:36:11.417Z,309
2023-04-21T00:38:24.831Z,310
2023-04-21T00:40:35.742Z,310
2023-04-21T00:42:46.522Z,309
2023-04-21T00:44:57.155Z,309
2023-04-21T00:47:08.581Z,312
2023-04-21T00:49:19.849Z,312
2023-04-21T00:51:32.514Z,312
2023-04-21T00:53:44.190Z,312
2023-04-21T00:55:56.513Z,310
2023-04-21T00:58:07.963Z,310
2023-04-21T01:00:21.740Z,309
2023-04-21T01:02:33.939Z,309
2023-04-21T01:04:49.202Z,310
2023-04-21T01:07:02.950Z,309
2023-04-21T01:09:15.123Z,309
2023-04-21T01:11:30.759Z,309
2023-04-21T01:13:41.799Z,308
2023-04-21T01:15:54.301Z,310
2023-04-21T01:18:09.039Z,309
2023-04-21T01:20:21.139Z,310
2023-04-21T01:22:33.797Z,309
2023-04-21T01:24:46.622Z,309
2023-04-21T01:26:58.680Z,309
2023-04-21T01:29:10.516Z,310
2023-04-21T01:31:24.795Z,309
2023-04-21T01:33:36.701Z,310
2023-04-21T01:35:48.364Z,309
2023-04-21T01:38:00.750Z,310
2023-04-21T01:40:12.617Z,308
2023-04-21T01:42:23.610Z,310
2023-04-21T01:44:34.903Z,310
2023-04-21T01:46:46.627Z,310
2023-04-21T01:48:57.498Z,310
2023-04-21T01:51:09.341Z,310
2023-04-21T01:53:19.779Z,310
2023-04-21T01:55:31.604Z,310
2023-04-21T01:57:42.250Z,310
2023-04-21T01:59:53.477Z,310
2023-04-21T02:02:04.270Z,310
2023-04-21T02:04:17.261Z,310
2023-04-21T02:06:28.592Z,310
2023-04-21T02:08:40.048Z,308
2023-04-21T02:10:51.467Z,312
2023-04-21T02:13:03.985Z,310
2023-04-21T02:15:17.984Z,310
2023-04-21T02:17:28.537Z,310
2023-04-21T02:19:39.043Z,310
2023-04-21T02:21:49.265Z,310
2023-04-21T02:24:00.141Z,310
2023-04-21T02:26:11.864Z,310
2023-04-21T02:28:23.300Z,312
2023-04-21T02:30:37.641Z,310
2023-04-21T02:32:50.781Z,310
2023-04-21T02:35:05.382Z,312
2023-04-21T02:37:16.836Z,310
2023-04-21T02:39:27.690Z,310
2023-04-21T02:41:42.319Z,310
2023-04-21T02:43:53.409Z,310
2023-04-21T02:46:05.696Z,310
2023-04-21T02:48:16.890Z,312
2023-04-21T02:50:27.791Z,312
2023-04-21T02:52:38.564Z,312
2023-04-21T02:54:50.284Z,312
2023-04-21T02:57:02.318Z,310
2023-04-21T02:59:13.218Z,312
2023-04-21T03:01:24.260Z,312
2023-04-21T03:03:37.304Z,310
2023-04-21T03:05:49.539Z,310
2023-04-21T03:08:00.145Z,310
2023-04-21T03:10:11.052Z,310
2023-04-21T03:12:20.926Z,312
2023-04-21T03:14:32.050Z,310
2023-04-21T03:16:43.292Z,312
2023-04-21T03:18:54.849Z,310
2023-04-21T03:21:05.709Z,312
2023-04-21T03:23:16.493Z,312
2023-04-21T03:25:27.461Z,312
2023-04-21T03:27:38.996Z,312
2023-04-21T03:29:52.077Z,312
2023-04-21T03:32:03.512Z,312
2023-04-21T03:34:14.892Z,312
2023-04-21T03:36:25.374Z,310
2023-04-21T03:38:36.896Z,312
2023-04-21T03:40:48.024Z,312
2023-04-21T03:42:59.084Z,312
2023-04-21T03:45:09.956Z,312
2023-04-21T03:47:21.196Z,312
2023-04-21T03:49:32.201Z,313
2023-04-21T03:51:43.020Z,313
2023-04-21T03:53:53.783Z,313
2023-04-21T03:56:04.486Z,313
2023-04-21T03:58:16.398Z,313
2023-04-21T04:00:28.082Z,313
2023-04-21T04:02:38.105Z,313
2023-04-21T04:04:50.423Z,313
2023-04-21T04:07:01.548Z,312
2023-04-21T04:09:13.292Z,312
2023-04-21T04:11:23.884Z,312
2023-04-21T04:13:34.619Z,312
2023-04-21T04:15:44.609Z,312
2023-04-21T04:17:56.481Z,312
2023-04-21T04:20:09.969Z,313
2023-04-21T04:22:21.922Z,312
2023-04-21T04:24:34.275Z,313
2023-04-21T04:26:45.058Z,313
2023-04-21T04:28:55.864Z,313
2023-04-21T04:31:08.182Z,313
2023-04-21T04:33:19.851Z,312
2023-04-21T04:35:30.545Z,312
2023-04-21T04:37:41.552Z,312
2023-04-21T04:39:52.869Z,313
2023-04-21T04:42:04.998Z,313
2023-04-21T04:44:34.248Z,312
2023-04-21T04:49:52.647Z,312
2023-04-21T04:52:08.043Z,312
2023-04-21T04:54:21.798Z,313
2023-04-21T04:56:33.891Z,312
2023-04-21T04:58:44.952Z,313
2023-04-21T05:00:55.826Z,312
2023-04-21T05:03:08.505Z,312
2023-04-21T05:05:22.717Z,312
2023-04-21T05:07:33.693Z,312
2023-04-21T05:09:44.718Z,312
2023-04-21T05:11:56.241Z,312
2023-04-21T05:14:11.533Z,312
2023-04-21T05:16:28.075Z,310
2023-04-21T05:18:41.232Z,312
2023-04-21T05:20:54.604Z,310
2023-04-21T05:23:05.738Z,310
2023-04-21T05:25:21.396Z,310
2023-04-21T05:27:34.821Z,310
2023-04-21T05:29:48.007Z,310
2023-04-21T05:32:01.191Z,310
2023-04-21T05:34:12.814Z,310
2023-04-21T05:36:23.573Z,310
2023-04-21T05:38:33.940Z,310
2023-04-21T05:40:44.418Z,312
2023-04-21T05:42:55.505Z,312
2023-04-21T05:45:08.411Z,312
2023-04-21T05:47:19.920Z,312
2023-04-21T05:49:32.668Z,310
2023-04-21T05:51:45.137Z,312
2023-04-21T05:54:00.781Z,310
2023-04-21T05:56:16.266Z,312
2023-04-21T05:58:28.699Z,312
2023-04-21T06:00:41.067Z,310
2023-04-21T06:02:53.632Z,312
2023-04-21T06:05:07.968Z,312
2023-04-21T06:07:23.596Z,312
2023-04-21T06:09:34.243Z,310
2023-04-21T06:11:46.077Z,310
2023-04-21T06:13:59.815Z,310
2023-04-21T06:16:14.311Z,310
2023-04-21T06:18:25.897Z,310
2023-04-21T06:20:37.557Z,310
2023-04-21T06:22:48.859Z,310
2023-04-21T06:25:02.076Z,310
2023-04-21T06:27:14.136Z,310
2023-04-21T06:29:25.416Z,310
2023-04-21T06:31:36.653Z,310
2023-04-21T06:33:49.714Z,310
2023-04-21T06:36:02.878Z,310
2023-04-21T06:38:14.368Z,310
2023-04-21T06:40:26.526Z,310
2023-04-21T06:42:41.036Z,310
2023-04-21T06:44:55.618Z,310
2023-04-21T06:47:05.934Z,310
2023-04-21T06:49:19.396Z,310
2023-04-21T06:51:39.232Z,310
2023-04-21T06:53:54.048Z,310
2023-04-21T06:56:09.291Z,310
2023-04-21T06:58:23.671Z,312
2023-04-21T07:00:35.908Z,312
2023-04-21T07:02:50.205Z,312
2023-04-21T07:05:06.409Z,310
2023-04-21T07:07:17.390Z,312
2023-04-21T07:09:29.473Z,310
2023-04-21T07:11:40.958Z,310
2023-04-21T07:14:01.939Z,310
2023-04-21T07:16:15.038Z,310
2023-04-21T07:18:30.388Z,310
2023-04-21T07:20:49.526Z,310
2023-04-21T07:23:03.738Z,312
2023-04-21T07:25:25.726Z,310
2023-04-21T07:27:37.677Z,310
2023-04-21T07:29:56.928Z,310
2023-04-21T07:32:14.300Z,310
2023-04-21T07:34:26.750Z,310
2023-04-21T07:36:40.855Z,310
2023-04-21T07:38:57.949Z,310
2023-04-21T07:44:16.956Z,310
2023-04-21T07:50:11.457Z,309
2023-04-21T07:52:30.388Z,310
2023-04-21T07:54:49.453Z,309
2023-04-21T07:57:11.353Z,309
2023-04-21T07:59:26.772Z,310
2023-04-21T08:01:43.099Z,309
2023-04-21T08:04:02.260Z,310
2023-04-21T08:06:26.044Z,310
2023-04-21T08:08:44.720Z,310
2023-04-21T08:11:04.265Z,310
2023-04-21T08:13:18.528Z,312
2023-04-21T08:15:34.932Z,310
2023-04-21T08:18:14.820Z,310
2023-04-21T08:20:36.718Z,310
2023-04-21T08:23:25.281Z,310
2023-04-21T08:25:46.437Z,310
2023-04-21T08:27:59.821Z,310
2023-04-21T08:30:15.867Z,310
2023-04-21T08:32:28.889Z,310
2023-04-21T08:34:44.968Z,310
2023-04-21T08:36:57.478Z,310
2023-04-21T08:39:11.989Z,310
2023-04-21T08:41:29.165Z,312
2023-04-21T08:44:23.278Z,310
2023-04-21T08:46:46.059Z,310
2023-04-21T08:49:04.956Z,310
2023-04-21T08:51:35.311Z,310
2023-04-21T08:53:52.504Z,312
2023-04-21T08:56:22.033Z,309
2023-04-21T08:58:35.610Z,310
2023-04-21T09:00:46.744Z,310
2023-04-21T09:03:48.036Z,310
2023-04-21T11:49:25.336Z,317
2023-04-21T11:52:03.520Z,317
2023-04-21T11:54:37.151Z,313
2023-04-21T11:57:12.435Z,316
2023-04-21T11:59:40.897Z,316
2023-04-21T12:05:21.090Z,320
2023-04-21T12:07:57.237Z,320
2023-04-21T12:10:24.551Z,319
2023-04-21T12:12:53.180Z,308
2023-04-21T12:15:15.548Z,309
2023-04-21T12:20:36.379Z,313
2023-04-21T12:23:13.950Z,313
2023-04-21T12:25:40.188Z,313
2023-04-21T12:31:02.048Z,314
2023-04-21T12:33:42.538Z,314
2023-04-21T12:36:02.629Z,310
2023-04-21T12:38:52.475Z,313
2023-04-21T12:41:13.509Z,313
2023-04-21T12:43:30.254Z,313
2023-04-21T12:45:46.543Z,309
2023-04-21T12:48:19.003Z,310
2023-04-21T12:50:46.999Z,313
2023-04-21T12:53:20.174Z,313
2023-04-21T12:55:53.190Z,310
2023-04-21T12:58:31.616Z,309
2023-04-21T13:00:52.157Z,308
2023-04-21T13:03:10.955Z,310
2023-04-21T13:05:45.337Z,309
2023-04-21T13:08:13.110Z,309
2023-04-21T13:10:42.630Z,312
2023-04-21T13:13:00.832Z,313
2023-04-21T13:15:27.851Z,316
2023-04-21T13:17:42.088Z,316
2023-04-21T13:20:09.004Z,317
2023-04-21T13:22:23.359Z,313
2023-04-21T13:28:09.222Z,306
2023-04-21T13:30:33.911Z,307
2023-04-21T13:32:47.412Z,306
2023-04-21T13:35:02.551Z,320
2023-04-21T13:37:23.516Z,319
2023-04-21T13:39:55.830Z,319
2023-04-21T13:42:21.160Z,317
2023-04-21T13:44:39.581Z,321
2023-04-21T13:47:30.561Z,320
2023-04-21T13:49:55.657Z,319
2023-04-21T13:52:21.954Z,320
2023-04-21T13:54:50.871Z,321
2023-04-21T13:57:48.540Z,320
2023-04-21T14:00:10.486Z,320
2023-04-21T14:02:24.747Z,320
2023-04-21T14:21:25.203Z,310
2023-04-21T14:24:35.573Z,312
2023-04-21T14:44:51.554Z,312
2023-04-21T15:45:24.559Z,304
2023-04-21T16:57:45.423Z,294
2023-04-21T17:00:14.101Z,308
2023-04-21T17:02:39.099Z,306
2023-04-21T17:05:34.979Z,306
2023-04-21T17:08:04.576Z,306
2023-04-21T17:10:23.730Z,306
2023-04-21T17:12:49.949Z,296
2023-04-21T17:15:17.521Z,294
2023-04-21T17:17:52.363Z,290
2023-04-21T17:20:33.501Z,301
2023-04-21T17:23:45.251Z,303
2023-04-21T17:26:39.588Z,302
2023-04-21T17:29:34.969Z,302
2023-04-21T17:32:09.674Z,295
2023-04-21T17:35:05.387Z,297
2023-04-21T17:37:20.257Z,297
2023-04-21T17:39:42.094Z,296
2023-04-21T17:42:05.951Z,294
2023-04-21T17:44:28.871Z,297
2023-04-21T17:46:50.430Z,297
2023-04-21T17:49:26.379Z,301
2023-04-21T17:51:49.270Z,291
2023-04-21T17:54:11.548Z,302
2023-04-21T17:57:24.051Z,307
2023-04-21T17:59:42.172Z,291
2023-04-21T18:01:54.184Z,309
2023-04-21T18:04:10.019Z,308
2023-04-21T18:06:33.839Z,306
2023-04-21T18:08:49.025Z,308
2023-04-21T18:11:04.291Z,307
2023-04-21T18:13:31.827Z,310
2023-04-21T18:15:52.845Z,306
2023-04-21T18:18:09.637Z,309
2023-04-21T18:20:35.734Z,310
2023-04-21T18:22:58.279Z,309
2023-04-21T18:25:42.377Z,306
2023-04-21T18:28:26.960Z,277
2023-04-21T18:30:41.099Z,300
2023-04-21T18:33:06.879Z,309
2023-04-21T18:35:25.320Z,306
2023-04-21T18:37:45.241Z,307
2023-04-21T18:40:02.141Z,307
2023-04-21T18:42:18.516Z,301
2023-04-21T18:44:34.321Z,306
2023-04-21T18:46:51.246Z,291
2023-04-21T18:49:04.696Z,297
2023-04-21T18:51:24.247Z,302
2023-04-21T18:53:39.018Z,297
2023-04-21T18:55:58.683Z,300
2023-04-21T18:58:14.697Z,296
2023-04-21T19:00:32.468Z,295
2023-04-21T19:02:59.515Z,295
2023-04-21T19:05:15.797Z,294
2023-04-21T19:07:32.998Z,294
2023-04-21T19:09:47.717Z,296
2023-04-21T19:12:20.357Z,297
2023-04-21T19:14:59.488Z,294
2023-04-21T19:17:27.410Z,297
2023-04-21T19:19:41.097Z,283
2023-04-21T19:21:54.002Z,293
2023-04-21T19:24:08.959Z,291
2023-04-21T19:26:29.798Z,293
2023-04-21T19:28:48.304Z,291
2023-04-21T19:31:11.764Z,286
2023-04-21T19:33:39.057Z,308
2023-04-21T19:35:50.958Z,309
2023-04-21T19:38:04.220Z,302
2023-04-21T19:40:22.221Z,306
2023-04-21T19:42:45.939Z,313
2023-04-21T19:45:13.100Z,309
2023-04-21T19:47:29.748Z,301
2023-04-21T19:49:55.883Z,303
2023-04-21T19:52:20.320Z,304
2023-04-21T19:54:37.959Z,320
2023-04-21T19:57:03.622Z,321
2023-04-21T19:59:17.027Z,300
2023-04-21T20:01:34.179Z,296
2023-04-21T20:03:47.225Z,290
2023-04-21T20:06:15.904Z,303
2023-04-21T20:08:32.309Z,313
2023-04-21T20:10:45.322Z,296
2023-04-21T20:12:56.020Z,307
2023-04-21T20:15:08.413Z,284
2023-04-21T20:17:20.174Z,296
2023-04-21T20:19:34.167Z,290
2023-04-21T20:21:50.250Z,284
2023-04-21T20:24:08.020Z,300
2023-04-21T20:26:29.960Z,307
2023-04-21T20:28:47.461Z,302
2023-04-21T20:31:04.895Z,296
2023-04-21T20:33:18.952Z,297
2023-04-21T20:35:39.392Z,292
2023-04-21T20:37:53.044Z,298
2023-04-21T20:40:05.465Z,297
2023-04-21T20:42:24.845Z,291
2023-04-21T20:44:43.461Z,293
2023-04-21T20:47:01.360Z,301
2023-04-21T20:49:17.257Z,302
2023-04-21T20:51:38.581Z,301
2023-04-21T20:54:00.003Z,300
2023-04-21T20:56:18.100Z,298
2023-04-21T20:58:32.006Z,301
2023-04-21T21:00:51.281Z,294
2023-04-21T21:03:07.682Z,293
2023-04-21T21:05:22.880Z,301
2023-04-21T21:07:40.020Z,301
2023-04-21T21:09:51.043Z,301
2023-04-21T21:12:09.879Z,300
2023-04-21T21:14:22.922Z,301
2023-04-21T21:16:37.476Z,302
2023-04-21T21:18:51.639Z,302
2023-04-21T21:21:05.341Z,302
2023-04-21T21:23:30.859Z,297
2023-04-21T21:25:41.386Z,286
2023-04-21T21:27:53.520Z,283
2023-04-21T21:30:06.980Z,313
2023-04-21T21:32:18.953Z,309
2023-04-21T21:34:30.442Z,301
2023-04-21T21:36:41.132Z,306
2023-04-21T21:38:59.482Z,310
2023-04-21T21:41:14.247Z,317
2023-04-21T21:43:29.091Z,307
2023-04-21T21:45:40.458Z,303
2023-04-21T21:47:51.548Z,288
2023-04-21T21:50:04.721Z,300
2023-04-21T21:52:18.496Z,301
2023-04-21T21:54:37.843Z,305
2023-04-21T21:56:49.658Z,302
2023-04-21T21:59:02.102Z,302
2023-04-21T22:01:20.314Z,302
2023-04-21T22:03:37.967Z,307
2023-04-21T22:05:54.138Z,292
2023-04-21T22:08:05.960Z,288
2023-04-21T22:10:20.738Z,296
2023-04-21T22:12:34.780Z,300
2023-04-21T22:15:00.242Z,301
2023-04-21T22:17:20.224Z,293
2023-04-21T22:19:31.757Z,296
2023-04-21T22:21:46.356Z,291
2023-04-21T22:24:05.995Z,291
2023-04-21T22:26:25.898Z,300
2023-04-21T22:28:43.645Z,298
2023-04-21T22:30:58.500Z,297
2023-04-21T22:33:08.674Z,293
2023-04-21T22:35:20.524Z,291
2023-04-21T22:37:37.181Z,297
2023-04-21T22:39:50.135Z,297
2023-04-21T22:42:06.018Z,296
2023-04-21T22:44:17.481Z,300
2023-04-21T22:46:40.643Z,295
2023-04-21T22:48:54.681Z,306
2023-04-21T22:51:12.517Z,308
2023-04-21T22:53:35.484Z,305
2023-04-21T22:55:53.860Z,315
2023-04-21T22:58:08.439Z,313
2023-04-21T23:00:28.156Z,312
2023-04-21T23:02:47.970Z,310
2023-04-21T23:05:02.780Z,312
2023-04-21T23:07:22.458Z,313
2023-04-21T23:09:39.620Z,310
2023-04-21T23:12:01.393Z,312
2023-04-21T23:14:13.779Z,310
2023-04-21T23:16:26.494Z,309
2023-04-21T23:18:37.725Z,310
2023-04-21T23:20:50.978Z,309
2023-04-21T23:23:06.948Z,310
2023-04-21T23:25:20.439Z,312
2023-04-21T23:27:35.623Z,309
2023-04-21T23:29:53.387Z,309
2023-04-21T23:32:07.703Z,303
2023-04-21T23:34:19.381Z,307
2023-04-21T23:36:34.580Z,309
2023-04-21T23:38:59.704Z,307
2023-04-21T23:41:18.547Z,308
2023-04-21T23:43:52.939Z,309
2023-04-21T23:46:19.171Z,307
2023-04-21T23:48:31.204Z,308
2023-04-21T23:50:48.464Z,309
2023-04-21T23:53:04.806Z,307
2023-04-21T23:55:14.864Z,309
2023-04-21T23:57:37.884Z,313
